sensor_id;sensor_type;location;lat;lon;timestamp;pressure;altitude;pressure_sealevel;temperature;humidity
59315;BME280;46521;50.160;20.802;2022-08-21T00:00:10;99079.14;;;21.51;63.34
59315;BME280;46521;50.160;20.802;2022-08-21T00:10:33;99062.05;;;21.40;63.54
59315;BME280;46521;50.160;20.802;2022-08-21T00:20:35;99051.80;;;21.37;63.45
59315;BME280;46521;50.160;20.802;2022-08-21T00:30:37;99053.31;;;21.28;63.73
59315;BME280;46521;50.160;20.802;2022-08-21T00:40:54;99051.80;;;21.37;63.67
59315;BME280;46521;50.160;20.802;2022-08-21T00:51:19;99058.77;;;21.33;63.76
59315;BME280;46521;50.160;20.802;2022-08-21T01:01:24;99046.21;;;21.17;64.16
59315;BME280;46521;50.160;20.802;2022-08-21T01:11:26;99038.70;;;21.19;64.03
59315;BME280;46521;50.160;20.802;2022-08-21T01:21:28;99031.80;;;21.28;64.21
59315;BME280;46521;50.160;20.802;2022-08-21T01:31:31;99024.61;;;21.34;64.23
59315;BME280;46521;50.160;20.802;2022-08-21T01:41:33;99006.25;;;21.26;64.20
59315;BME280;46521;50.160;20.802;2022-08-21T01:51:36;99001.67;;;21.26;64.12
59315;BME280;46521;50.160;20.802;2022-08-21T02:01:38;99009.19;;;21.24;64.31
59315;BME280;46521;50.160;20.802;2022-08-21T02:11:43;99024.95;;;21.15;64.53
59315;BME280;46521;50.160;20.802;2022-08-21T02:21:44;98991.52;;;21.06;64.35
59315;BME280;46521;50.160;20.802;2022-08-21T02:31:47;98974.03;;;21.03;64.61
59315;BME280;46521;50.160;20.802;2022-08-21T02:41:48;98975.59;;;20.99;64.48
59315;BME280;46521;50.160;20.802;2022-08-21T02:51:50;98991.09;;;20.92;64.67
59315;BME280;46521;50.160;20.802;2022-08-21T03:01:52;98976.81;;;20.86;64.55
59315;BME280;46521;50.160;20.802;2022-08-21T03:11:53;98971.81;;;20.73;64.66
59315;BME280;46521;50.160;20.802;2022-08-21T03:21:54;98983.23;;;20.63;64.43
59315;BME280;46521;50.160;20.802;2022-08-21T03:31:57;98987.47;;;20.59;64.85
59315;BME280;46521;50.160;20.802;2022-08-21T03:41:58;98985.86;;;20.58;65.21
59315;BME280;46521;50.160;20.802;2022-08-21T03:52:01;98994.47;;;20.60;65.33
59315;BME280;46521;50.160;20.802;2022-08-21T04:02:05;99003.13;;;20.45;64.97
59315;BME280;46521;50.160;20.802;2022-08-21T04:12:07;99007.40;;;20.41;65.07
59315;BME280;46521;50.160;20.802;2022-08-21T04:22:10;99020.05;;;20.24;65.18
59315;BME280;46521;50.160;20.802;2022-08-21T04:32:11;99023.25;;;20.04;65.29
59315;BME280;46521;50.160;20.802;2022-08-21T04:42:13;99021.13;;;20.06;65.68
59315;BME280;46521;50.160;20.802;2022-08-21T04:52:19;99023.73;;;20.01;65.95
59315;BME280;46521;50.160;20.802;2022-08-21T05:02:21;99021.91;;;20.23;66.13
59315;BME280;46521;50.160;20.802;2022-08-21T05:12:23;99023.00;;;20.83;66.31
59315;BME280;46521;50.160;20.802;2022-08-21T05:22:26;99023.95;;;21.49;66.34
59315;BME280;46521;50.160;20.802;2022-08-21T05:32:28;99020.93;;;22.10;65.77
59315;BME280;46521;50.160;20.802;2022-08-21T05:42:29;99033.39;;;22.64;65.36
59315;BME280;46521;50.160;20.802;2022-08-21T05:52:31;99032.09;;;22.72;65.21
59315;BME280;46521;50.160;20.802;2022-08-21T06:02:32;99035.66;;;22.93;65.06
59315;BME280;46521;50.160;20.802;2022-08-21T06:12:34;99040.61;;;23.16;64.33
59315;BME280;46521;50.160;20.802;2022-08-21T06:22:35;99048.16;;;23.09;64.29
59315;BME280;46521;50.160;20.802;2022-08-21T06:32:37;99042.27;;;23.33;63.95
59315;BME280;46521;50.160;20.802;2022-08-21T06:42:39;99042.00;;;23.39;63.81
59315;BME280;46521;50.160;20.802;2022-08-21T06:52:41;99039.36;;;23.96;63.55
59315;BME280;46521;50.160;20.802;2022-08-21T07:02:42;99032.28;;;24.36;62.96
59315;BME280;46521;50.160;20.802;2022-08-21T07:12:44;99029.05;;;24.34;62.62
59315;BME280;46521;50.160;20.802;2022-08-21T07:22:45;99016.48;;;24.74;61.94
59315;BME280;46521;50.160;20.802;2022-08-21T07:32:47;99016.18;;;24.81;61.75
59315;BME280;46521;50.160;20.802;2022-08-21T07:42:52;99016.78;;;25.23;61.79
59315;BME280;46521;50.160;20.802;2022-08-21T07:52:57;99024.06;;;25.67;60.92
59315;BME280;46521;50.160;20.802;2022-08-21T08:03:02;99022.29;;;25.86;59.99
59315;BME280;46521;50.160;20.802;2022-08-21T08:13:08;99016.27;;;25.60;60.12
59315;BME280;46521;50.160;20.802;2022-08-21T08:23:11;99010.80;;;25.65;59.64
59315;BME280;46521;50.160;20.802;2022-08-21T08:33:13;99005.09;;;26.01;59.79
59315;BME280;46521;50.160;20.802;2022-08-21T08:43:15;99010.28;;;25.98;59.30
59315;BME280;46521;50.160;20.802;2022-08-21T08:53:34;99008.23;;;26.14;59.28
59315;BME280;46521;50.160;20.802;2022-08-21T09:03:42;99005.81;;;26.60;58.32
59315;BME280;46521;50.160;20.802;2022-08-21T09:34:30;98988.65;;;27.79;57.10
59315;BME280;46521;50.160;20.802;2022-08-21T09:44:38;98975.72;;;28.04;56.31
59315;BME280;46521;50.160;20.802;2022-08-21T09:54:45;98971.18;;;27.99;56.22
59315;BME280;46521;50.160;20.802;2022-08-21T10:04:56;98961.58;;;28.85;55.30
59315;BME280;46521;50.160;20.802;2022-08-21T10:35:23;98962.14;;;29.33;53.17
59315;BME280;46521;50.160;20.802;2022-08-21T10:46:30;98949.91;;;29.44;52.29
59315;BME280;46521;50.160;20.802;2022-08-21T10:56:15;98954.55;;;29.75;51.62
59315;BME280;46521;50.160;20.802;2022-08-21T11:06:21;98948.31;;;30.06;50.54
59315;BME280;46521;50.160;20.802;2022-08-21T11:16:39;98939.30;;;29.96;50.47
59315;BME280;46521;50.160;20.802;2022-08-21T11:26:57;98926.98;;;30.65;49.60
59315;BME280;46521;50.160;20.802;2022-08-21T11:37:02;98917.52;;;30.71;48.48
59315;BME280;46521;50.160;20.802;2022-08-21T11:47:15;98915.44;;;30.86;48.44
59315;BME280;46521;50.160;20.802;2022-08-21T11:57:39;98915.77;;;30.93;47.71
59315;BME280;46521;50.160;20.802;2022-08-21T12:07:44;98909.20;;;31.12;46.97
59315;BME280;46521;50.160;20.802;2022-08-21T12:17:59;98891.67;;;30.78;46.16
59315;BME280;46521;50.160;20.802;2022-08-21T12:28:07;98889.91;;;29.89;46.25
59315;BME280;46521;50.160;20.802;2022-08-21T12:38:12;98880.00;;;29.17;47.02
59315;BME280;46521;50.160;20.802;2022-08-21T12:48:42;98880.69;;;28.77;47.20
59315;BME280;46521;50.160;20.802;2022-08-21T12:58:49;98880.02;;;28.57;47.50
59315;BME280;46521;50.160;20.802;2022-08-21T13:08:56;98878.64;;;28.32;47.92
59315;BME280;46521;50.160;20.802;2022-08-21T13:19:05;98861.16;;;28.25;48.42
59315;BME280;46521;50.160;20.802;2022-08-21T13:29:12;98867.95;;;28.64;49.32
59315;BME280;46521;50.160;20.802;2022-08-21T13:39:18;98868.27;;;28.85;49.19
59315;BME280;46521;50.160;20.802;2022-08-21T13:49:30;98869.17;;;29.03;49.19
59315;BME280;46521;50.160;20.802;2022-08-21T13:59:34;98883.53;;;28.94;48.99
59315;BME280;46521;50.160;20.802;2022-08-21T14:09:41;98877.03;;;28.45;50.28
59315;BME280;46521;50.160;20.802;2022-08-21T14:19:45;98872.41;;;27.62;51.25
59315;BME280;46521;50.160;20.802;2022-08-21T14:29:48;98885.92;;;26.83;52.44
59315;BME280;46521;50.160;20.802;2022-08-21T14:39:50;98890.55;;;26.20;54.14
59315;BME280;46521;50.160;20.802;2022-08-21T14:49:52;98908.91;;;25.75;54.41
59315;BME280;46521;50.160;20.802;2022-08-21T14:59:54;98916.60;;;25.62;55.58
59315;BME280;46521;50.160;20.802;2022-08-21T15:09:56;98922.13;;;25.52;56.28
59315;BME280;46521;50.160;20.802;2022-08-21T15:54:49;98991.02;;;23.53;60.99
59315;BME280;46521;50.160;20.802;2022-08-21T16:14:07;98984.23;;;22.41;63.74
59315;BME280;46521;50.160;20.802;2022-08-21T16:24:12;98986.14;;;21.98;64.90
59315;BME280;46521;50.160;20.802;2022-08-21T16:44:40;98965.55;;;21.82;65.10
59315;BME280;46521;50.160;20.802;2022-08-21T16:54:46;98966.53;;;21.65;66.18
59315;BME280;46521;50.160;20.802;2022-08-21T17:04:58;98982.55;;;21.50;67.01
59315;BME280;46521;50.160;20.802;2022-08-21T17:15:05;98988.88;;;21.38;67.62
59315;BME280;46521;50.160;20.802;2022-08-21T17:25:07;98999.13;;;21.14;67.95
59315;BME280;46521;50.160;20.802;2022-08-21T17:35:10;99004.00;;;20.68;68.02
59315;BME280;46521;50.160;20.802;2022-08-21T17:45:14;99020.42;;;20.32;68.74
59315;BME280;46521;50.160;20.802;2022-08-21T17:55:17;99032.52;;;20.13;68.87
59315;BME280;46521;50.160;20.802;2022-08-21T18:05:20;99048.06;;;19.94;69.44
59315;BME280;46521;50.160;20.802;2022-08-21T18:15:21;99055.33;;;19.65;70.07
59315;BME280;46521;50.160;20.802;2022-08-21T18:25:23;99063.34;;;19.48;70.47
59315;BME280;46521;50.160;20.802;2022-08-21T18:35:24;99067.70;;;19.37;70.69
59315;BME280;46521;50.160;20.802;2022-08-21T18:45:26;99072.34;;;19.41;71.09
59315;BME280;46521;50.160;20.802;2022-08-21T18:55:28;99069.98;;;19.45;71.09
59315;BME280;46521;50.160;20.802;2022-08-21T19:05:30;99072.91;;;19.43;71.34
59315;BME280;46521;50.160;20.802;2022-08-21T19:15:33;99079.28;;;19.54;71.54
59315;BME280;46521;50.160;20.802;2022-08-21T19:25:36;99079.11;;;19.44;71.92
59315;BME280;46521;50.160;20.802;2022-08-21T19:35:38;99079.76;;;19.51;72.13
59315;BME280;46521;50.160;20.802;2022-08-21T19:45:39;99067.31;;;19.45;72.03
59315;BME280;46521;50.160;20.802;2022-08-21T19:55:42;99064.08;;;19.14;72.65
59315;BME280;46521;50.160;20.802;2022-08-21T20:05:44;99062.26;;;19.03;73.23
59315;BME280;46521;50.160;20.802;2022-08-21T20:15:46;99066.45;;;18.99;73.35
59315;BME280;46521;50.160;20.802;2022-08-21T20:25:48;99061.09;;;18.99;73.19
59315;BME280;46521;50.160;20.802;2022-08-21T20:35:49;99060.08;;;18.76;73.08
59315;BME280;46521;50.160;20.802;2022-08-21T20:45:52;99060.89;;;18.65;73.40
59315;BME280;46521;50.160;20.802;2022-08-21T20:55:54;99054.27;;;18.55;73.80
59315;BME280;46521;50.160;20.802;2022-08-21T21:06:00;99066.05;;;18.54;73.48
59315;BME280;46521;50.160;20.802;2022-08-21T21:16:10;99069.06;;;18.46;73.50
59315;BME280;46521;50.160;20.802;2022-08-21T21:46:50;99082.59;;;18.28;74.06
59315;BME280;46521;50.160;20.802;2022-08-21T22:07:40;99064.08;;;18.26;73.86
59315;BME280;46521;50.160;20.802;2022-08-21T22:17:57;99072.81;;;18.22;73.91
59315;BME280;46521;50.160;20.802;2022-08-21T22:28:07;99077.70;;;18.25;73.72
59315;BME280;46521;50.160;20.802;2022-08-21T22:38:16;99085.50;;;18.26;73.62
59315;BME280;46521;50.160;20.802;2022-08-21T22:48:20;99086.30;;;18.27;73.66
59315;BME280;46521;50.160;20.802;2022-08-21T22:58:27;99069.19;;;18.16;73.51
59315;BME280;46521;50.160;20.802;2022-08-21T23:08:35;99079.98;;;17.97;74.02
59315;BME280;46521;50.160;20.802;2022-08-21T23:18:52;99074.98;;;17.89;74.31
